sensor_id;sensor_type;location;lat;lon;timestamp;pressure;altitude;pressure_sealevel;temperature;humidity
45369;BME280;51342;55.250;37.668;2024-03-23T00:54:07;98741.81;;;0.92;69.29
45369;BME280;51342;55.250;37.668;2024-03-23T00:56:39;98735.16;;;0.94;69.47
45369;BME280;51342;55.250;37.668;2024-03-23T00:59:23;98722.22;;;0.91;69.36
45369;BME280;51342;55.250;37.668;2024-03-23T01:01:58;98725.22;;;0.97;69.42
45369;BME280;51342;55.250;37.668;2024-03-23T01:04:35;98725.22;;;0.97;69.50
45369;BME280;51342;55.250;37.668;2024-03-23T01:07:07;98728.00;;;1.00;69.46
45369;BME280;51342;55.250;37.668;2024-03-23T01:09:54;98709.19;;;0.98;69.56
45369;BME280;51342;55.250;37.668;2024-03-23T01:12:25;98706.22;;;1.04;69.55
45369;BME280;51342;55.250;37.668;2024-03-23T01:15:12;98694.91;;;1.00;69.41
45369;BME280;51342;55.250;37.668;2024-03-23T01:17:43;98691.81;;;1.04;69.66
45369;BME280;51342;55.250;37.668;2024-03-23T01:20:21;98691.94;;;1.06;69.47
45369;BME280;51342;55.250;37.668;2024-03-23T01:22:52;98669.19;;;0.97;69.61
45369;BME280;51342;55.250;37.668;2024-03-23T01:25:41;98673.88;;;1.03;69.44
45369;BME280;51342;55.250;37.668;2024-03-23T01:28:12;98680.44;;;1.11;69.80
45369;BME280;51342;55.250;37.668;2024-03-23T01:31:05;98672.81;;;1.11;69.60
45369;BME280;51342;55.250;37.668;2024-03-23T01:33:36;98672.38;;;1.17;69.69
45369;BME280;51342;55.250;37.668;2024-03-23T01:36:20;98667.81;;;1.13;69.77
45369;BME280;51342;55.250;37.668;2024-03-23T01:38:52;98663.19;;;1.19;69.89
45369;BME280;51342;55.250;37.668;2024-03-23T01:41:32;98665.00;;;1.20;69.77
45369;BME280;51342;55.250;37.668;2024-03-23T01:44:05;98663.69;;;1.25;70.00
45369;BME280;51342;55.250;37.668;2024-03-23T01:46:46;98655.03;;;1.23;69.92
45369;BME280;51342;55.250;37.668;2024-03-23T01:49:18;98655.28;;;1.26;70.08
45369;BME280;51342;55.250;37.668;2024-03-23T01:51:59;98656.06;;;1.25;69.96
45369;BME280;51342;55.250;37.668;2024-03-23T01:54:30;98644.06;;;1.24;70.21
45369;BME280;51342;55.250;37.668;2024-03-23T01:57:14;98651.06;;;1.26;69.93
45369;BME280;51342;55.250;37.668;2024-03-23T01:59:47;98648.72;;;1.29;70.17
45369;BME280;51342;55.250;37.668;2024-03-23T02:02:29;98647.84;;;1.29;70.15
45369;BME280;51342;55.250;37.668;2024-03-23T02:05:01;98643.09;;;1.33;70.21
45369;BME280;51342;55.250;37.668;2024-03-23T02:07:42;98638.44;;;1.28;70.23
45369;BME280;51342;55.250;37.668;2024-03-23T02:10:16;98636.34;;;1.34;70.48
45369;BME280;51342;55.250;37.668;2024-03-23T02:12:54;98632.81;;;1.32;70.49
45369;BME280;51342;55.250;37.668;2024-03-23T02:15:25;98619.28;;;1.33;70.68
45369;BME280;51342;55.250;37.668;2024-03-23T02:18:07;98616.75;;;1.33;70.63
45369;BME280;51342;55.250;37.668;2024-03-23T02:20:39;98616.22;;;1.37;70.80
45369;BME280;51342;55.250;37.668;2024-03-23T02:23:25;98605.78;;;1.34;70.77
45369;BME280;51342;55.250;37.668;2024-03-23T02:25:57;98605.66;;;1.32;70.92
45369;BME280;51342;55.250;37.668;2024-03-23T02:28:47;98610.75;;;1.32;70.97
45369;BME280;51342;55.250;37.668;2024-03-23T02:31:18;98601.81;;;1.38;71.07
45369;BME280;51342;55.250;37.668;2024-03-23T02:33:55;98593.38;;;1.39;71.22
45369;BME280;51342;55.250;37.668;2024-03-23T02:36:27;98593.47;;;1.40;71.55
45369;BME280;51342;55.250;37.668;2024-03-23T02:39:01;98580.41;;;1.36;71.65
45369;BME280;51342;55.250;37.668;2024-03-23T02:41:33;98585.94;;;1.42;71.73
45369;BME280;51342;55.250;37.668;2024-03-23T02:44:10;98571.88;;;1.35;71.68
45369;BME280;51342;55.250;37.668;2024-03-23T02:46:43;98581.75;;;1.42;71.94
45369;BME280;51342;55.250;37.668;2024-03-23T02:49:14;98575.88;;;1.43;71.96
45369;BME280;51342;55.250;37.668;2024-03-23T02:51:45;98569.03;;;1.42;71.96
45369;BME280;51342;55.250;37.668;2024-03-23T02:54:19;98569.22;;;1.45;72.45
45369;BME280;51342;55.250;37.668;2024-03-23T02:56:51;98556.59;;;1.47;72.30
45369;BME280;51342;55.250;37.668;2024-03-23T02:59:22;98555.06;;;1.49;72.37
45369;BME280;51342;55.250;37.668;2024-03-23T03:01:53;98555.06;;;1.49;72.39
45369;BME280;51342;55.250;37.668;2024-03-23T03:04:25;98551.63;;;1.48;72.58
45369;BME280;51342;55.250;37.668;2024-03-23T03:06:56;98550.84;;;1.49;72.71
45369;BME280;51342;55.250;37.668;2024-03-23T03:09:34;98545.66;;;1.48;72.90
45369;BME280;51342;55.250;37.668;2024-03-23T03:12:06;98542.44;;;1.50;72.97
45369;BME280;51342;55.250;37.668;2024-03-23T03:14:41;98543.22;;;1.49;73.17
45369;BME280;51342;55.250;37.668;2024-03-23T03:17:12;98536.56;;;1.51;73.32
45369;BME280;51342;55.250;37.668;2024-03-23T03:19:50;98532.22;;;1.50;73.43
45369;BME280;51342;55.250;37.668;2024-03-23T03:22:26;98525.72;;;1.54;73.47
45369;BME280;51342;55.250;37.668;2024-03-23T03:24:58;98510.28;;;1.52;73.60
45369;BME280;51342;55.250;37.668;2024-03-23T03:27:31;98515.50;;;1.54;73.79
45369;BME280;51342;55.250;37.668;2024-03-23T03:30:02;98507.09;;;1.55;73.90
45369;BME280;51342;55.250;37.668;2024-03-23T03:32:36;98511.50;;;1.57;74.04
45369;BME280;51342;55.250;37.668;2024-03-23T03:35:11;98506.41;;;1.57;74.00
45369;BME280;51342;55.250;37.668;2024-03-23T03:37:42;98508.31;;;1.60;74.21
45369;BME280;51342;55.250;37.668;2024-03-23T03:40:17;98499.09;;;1.62;74.38
45369;BME280;51342;55.250;37.668;2024-03-23T03:42:48;98472.63;;;1.60;74.31
45369;BME280;51342;55.250;37.668;2024-03-23T03:45:26;98485.47;;;1.62;74.19
45369;BME280;51342;55.250;37.668;2024-03-23T03:47:58;98464.84;;;1.58;74.56
45369;BME280;51342;55.250;37.668;2024-03-23T03:50:33;98472.19;;;1.66;74.61
45369;BME280;51342;55.250;37.668;2024-03-23T03:53:04;98469.84;;;1.69;74.48
45369;BME280;51342;55.250;37.668;2024-03-23T03:55:39;98464.88;;;1.70;74.77
45369;BME280;51342;55.250;37.668;2024-03-23T03:58:11;98462.41;;;1.72;74.85
45369;BME280;51342;55.250;37.668;2024-03-23T04:00:48;98460.84;;;1.74;74.62
45369;BME280;51342;55.250;37.668;2024-03-23T04:03:20;98447.31;;;1.75;74.84
45369;BME280;51342;55.250;37.668;2024-03-23T04:05:58;98451.78;;;1.77;74.59
45369;BME280;51342;55.250;37.668;2024-03-23T04:08:29;98442.13;;;1.62;74.80
45369;BME280;51342;55.250;37.668;2024-03-23T04:11:06;98446.44;;;1.74;74.57
45369;BME280;51342;55.250;37.668;2024-03-23T04:13:38;98440.88;;;1.80;74.84
45369;BME280;51342;55.250;37.668;2024-03-23T04:16:09;98439.56;;;1.85;74.76
45369;BME280;51342;55.250;37.668;2024-03-23T04:18:40;98433.81;;;1.88;74.70
45369;BME280;51342;55.250;37.668;2024-03-23T04:21:22;98443.09;;;1.87;74.68
45369;BME280;51342;55.250;37.668;2024-03-23T04:23:54;98439.97;;;1.91;74.93
45369;BME280;51342;55.250;37.668;2024-03-23T04:26:28;98428.91;;;1.91;74.74
45369;BME280;51342;55.250;37.668;2024-03-23T04:28:59;98418.91;;;1.94;75.13
45369;BME280;51342;55.250;37.668;2024-03-23T04:31:32;98420.78;;;1.96;74.86
45369;BME280;51342;55.250;37.668;2024-03-23T04:34:05;98424.31;;;1.98;75.06
45369;BME280;51342;55.250;37.668;2024-03-23T04:36:37;98413.38;;;1.99;75.16
45369;BME280;51342;55.250;37.668;2024-03-23T04:39:08;98414.00;;;1.97;75.17
45369;BME280;51342;55.250;37.668;2024-03-23T04:41:46;98409.25;;;2.01;74.91
45369;BME280;51342;55.250;37.668;2024-03-23T04:44:17;98405.91;;;2.02;75.04
45369;BME280;51342;55.250;37.668;2024-03-23T04:46:48;98405.25;;;2.05;75.10
45369;BME280;51342;55.250;37.668;2024-03-23T04:49:51;98400.03;;;2.03;75.00
45369;BME280;51342;55.250;37.668;2024-03-23T04:52:22;98390.13;;;2.08;75.21
45369;BME280;51342;55.250;37.668;2024-03-23T04:54:55;98393.91;;;2.13;75.08
45369;BME280;51342;55.250;37.668;2024-03-23T04:57:26;98379.56;;;2.15;75.40
45369;BME280;51342;55.250;37.668;2024-03-23T05:00:19;98382.25;;;2.17;75.30
45369;BME280;51342;55.250;37.668;2024-03-23T05:02:51;98384.53;;;2.25;75.30
45369;BME280;51342;55.250;37.668;2024-03-23T05:05:24;98387.41;;;2.30;75.25
45369;BME280;51342;55.250;37.668;2024-03-23T05:07:55;98379.97;;;2.33;75.41
45369;BME280;51342;55.250;37.668;2024-03-23T05:10:33;98378.38;;;2.35;75.57
45369;BME280;51342;55.250;37.668;2024-03-23T05:13:05;98387.25;;;2.40;75.48
45369;BME280;51342;55.250;37.668;2024-03-23T05:15:39;98382.13;;;2.40;75.41
45369;BME280;51342;55.250;37.668;2024-03-23T05:18:10;98374.78;;;2.45;75.68
45369;BME280;51342;55.250;37.668;2024-03-23T05:20:48;98359.97;;;2.39;75.66
45369;BME280;51342;55.250;37.668;2024-03-23T05:23:19;98369.53;;;2.30;75.91
45369;BME280;51342;55.250;37.668;2024-03-23T05:26:00;98364.47;;;2.43;75.63
45369;BME280;51342;55.250;37.668;2024-03-23T05:28:31;98358.22;;;2.51;75.92
45369;BME280;51342;55.250;37.668;2024-03-23T05:31:04;98354.97;;;2.54;76.16
45369;BME280;51342;55.250;37.668;2024-03-23T05:33:36;98348.41;;;2.57;75.89
45369;BME280;51342;55.250;37.668;2024-03-23T05:36:29;98354.50;;;2.59;75.95
45369;BME280;51342;55.250;37.668;2024-03-23T05:39:00;98357.56;;;2.67;76.15
45369;BME280;51342;55.250;37.668;2024-03-23T05:41:38;98346.34;;;2.65;75.74
45369;BME280;51342;55.250;37.668;2024-03-23T05:44:09;98349.78;;;2.52;76.20
45369;BME280;51342;55.250;37.668;2024-03-23T05:46:45;98349.78;;;2.65;75.83
45369;BME280;51342;55.250;37.668;2024-03-23T05:49:19;98350.19;;;2.72;76.01
45369;BME280;51342;55.250;37.668;2024-03-23T05:51:52;98352.97;;;2.75;75.88
45369;BME280;51342;55.250;37.668;2024-03-23T05:54:24;98350.59;;;2.78;75.73
45369;BME280;51342;55.250;37.668;2024-03-23T05:57:03;98347.75;;;2.73;75.86
45369;BME280;51342;55.250;37.668;2024-03-23T05:59:34;98340.19;;;2.75;76.12
45369;BME280;51342;55.250;37.668;2024-03-23T06:02:12;98334.13;;;2.73;76.18
45369;BME280;51342;55.250;37.668;2024-03-23T06:04:45;98337.56;;;2.73;76.38
45369;BME280;51342;55.250;37.668;2024-03-23T06:07:26;98329.00;;;2.73;76.06
45369;BME280;51342;55.250;37.668;2024-03-23T06:09:57;98323.91;;;2.73;76.25
45369;BME280;51342;55.250;37.668;2024-03-23T06:12:38;98326.53;;;2.74;76.29
45369;BME280;51342;55.250;37.668;2024-03-23T06:15:09;98326.16;;;2.81;76.61
45369;BME280;51342;55.250;37.668;2024-03-23T06:17:50;98328.63;;;2.80;76.43
45369;BME280;51342;55.250;37.668;2024-03-23T06:20:22;98314.47;;;2.85;76.59
45369;BME280;51342;55.250;37.668;2024-03-23T06:23:01;98314.06;;;2.92;76.59
45369;BME280;51342;55.250;37.668;2024-03-23T06:25:33;98318.78;;;2.99;76.32
45369;BME280;51342;55.250;37.668;2024-03-23T06:28:07;98307.78;;;3.00;76.28
45369;BME280;51342;55.250;37.668;2024-03-23T06:30:39;98306.22;;;3.02;76.48
45369;BME280;51342;55.250;37.668;2024-03-23T06:33:17;98309.56;;;3.01;76.52
45369;BME280;51342;55.250;37.668;2024-03-23T06:35:51;98309.75;;;3.04;76.48
45369;BME280;51342;55.250;37.668;2024-03-23T06:38:32;98305.03;;;3.10;76.29
45369;BME280;51342;55.250;37.668;2024-03-23T06:41:07;98301.31;;;3.18;76.41
45369;BME280;51342;55.250;37.668;2024-03-23T06:43:40;98297.97;;;3.19;76.19
45369;BME280;51342;55.250;37.668;2024-03-23T06:46:11;98298.03;;;3.21;76.28
45369;BME280;51342;55.250;37.668;2024-03-23T06:48:46;98302.19;;;3.19;76.32
45369;BME280;51342;55.250;37.668;2024-03-23T06:51:17;98300.69;;;3.23;76.20
45369;BME280;51342;55.250;37.668;2024-03-23T06:53:55;98295.56;;;3.23;76.21
45369;BME280;51342;55.250;37.668;2024-03-23T06:56:26;98302.09;;;3.04;76.53
45369;BME280;51342;55.250;37.668;2024-03-23T06:59:01;98293.81;;;3.22;76.49
45369;BME280;51342;55.250;37.668;2024-03-23T07:01:32;98291.66;;;3.28;76.19
45369;BME280;51342;55.250;37.668;2024-03-23T07:04:07;98275.72;;;3.32;76.30
45369;BME280;51342;55.250;37.668;2024-03-23T07:06:45;98273.06;;;3.30;76.36
45369;BME280;51342;55.250;37.668;2024-03-23T07:09:16;98272.56;;;3.36;76.24
45369;BME280;51342;55.250;37.668;2024-03-23T07:11:48;98272.75;;;3.39;76.47
45369;BME280;51342;55.250;37.668;2024-03-23T07:14:25;98266.84;;;3.40;76.20
45369;BME280;51342;55.250;37.668;2024-03-23T07:16:57;98259.38;;;3.43;76.38
45369;BME280;51342;55.250;37.668;2024-03-23T07:19:34;98257.78;;;3.45;76.13
45369;BME280;51342;55.250;37.668;2024-03-23T07:22:06;98242.56;;;3.47;76.38
45369;BME280;51342;55.250;37.668;2024-03-23T07:24:41;98252.38;;;3.54;76.49
45369;BME280;51342;55.250;37.668;2024-03-23T07:27:12;98259.63;;;3.61;76.48
45369;BME280;51342;55.250;37.668;2024-03-23T07:29:43;98250.47;;;3.64;76.31
45369;BME280;51342;55.250;37.668;2024-03-23T07:32:16;98252.31;;;3.67;76.37
45369;BME280;51342;55.250;37.668;2024-03-23T07:34:53;98245.63;;;3.69;76.11
45369;BME280;51342;55.250;37.668;2024-03-23T07:37:24;98255.44;;;3.76;76.52
45369;BME280;51342;55.250;37.668;2024-03-23T07:40:03;98247.06;;;3.79;76.07
45369;BME280;51342;55.250;37.668;2024-03-23T07:42:35;98254.03;;;3.81;76.12
45369;BME280;51342;55.250;37.668;2024-03-23T07:45:09;98238.78;;;3.83;75.69
45369;BME280;51342;55.250;37.668;2024-03-23T07:47:41;98234.03;;;3.89;75.84
45369;BME280;51342;55.250;37.668;2024-03-23T07:50:15;98217.44;;;3.82;75.80
45369;BME280;51342;55.250;37.668;2024-03-23T07:52:47;98229.72;;;3.88;75.73
45369;BME280;51342;55.250;37.668;2024-03-23T07:55:29;98227.75;;;3.84;75.67
45369;BME280;51342;55.250;37.668;2024-03-23T07:58:00;98223.44;;;3.83;75.93
45369;BME280;51342;55.250;37.668;2024-03-23T08:00:35;98219.91;;;3.81;75.62
45369;BME280;51342;55.250;37.668;2024-03-23T08:03:06;98226.69;;;3.80;75.97
45369;BME280;51342;55.250;37.668;2024-03-23T08:05:44;98220.66;;;3.80;75.86
45369;BME280;51342;55.250;37.668;2024-03-23T08:08:15;98216.56;;;3.82;76.03
45369;BME280;51342;55.250;37.668;2024-03-23T08:10:50;98218.31;;;3.83;75.86
45369;BME280;51342;55.250;37.668;2024-03-23T08:13:22;98214.88;;;3.82;75.89
45369;BME280;51342;55.250;37.668;2024-03-23T08:16:01;98213.81;;;3.79;75.92
45369;BME280;51342;55.250;37.668;2024-03-23T08:18:33;98211.53;;;3.83;75.70
45369;BME280;51342;55.250;37.668;2024-03-23T08:21:10;98196.38;;;3.86;75.84
45369;BME280;51342;55.250;37.668;2024-03-23T08:23:42;98219.84;;;3.94;75.83
45369;BME280;51342;55.250;37.668;2024-03-23T08:26:17;98201.03;;;3.93;75.48
45369;BME280;51342;55.250;37.668;2024-03-23T08:28:51;98211.56;;;3.98;75.58
45369;BME280;51342;55.250;37.668;2024-03-23T08:31:22;98207.19;;;3.97;75.63
45369;BME280;51342;55.250;37.668;2024-03-23T08:33:54;98211.72;;;4.01;75.27
45369;BME280;51342;55.250;37.668;2024-03-23T08:36:34;98205.63;;;3.99;75.44
45369;BME280;51342;55.250;37.668;2024-03-23T08:39:06;98194.00;;;4.04;75.09
45369;BME280;51342;55.250;37.668;2024-03-23T08:41:37;98195.75;;;4.05;75.12
45369;BME280;51342;55.250;37.668;2024-03-23T08:44:09;98176.16;;;4.06;75.23
45369;BME280;51342;55.250;37.668;2024-03-23T08:46:49;98194.16;;;4.07;75.25
45369;BME280;51342;55.250;37.668;2024-03-23T08:49:21;98199.47;;;4.10;75.17
45369;BME280;51342;55.250;37.668;2024-03-23T08:52:01;98192.47;;;4.08;74.96
45369;BME280;51342;55.250;37.668;2024-03-23T08:54:32;98192.66;;;4.11;74.96
45369;BME280;51342;55.250;37.668;2024-03-23T08:57:07;98190.13;;;4.11;74.84
45369;BME280;51342;55.250;37.668;2024-03-23T08:59:39;98186.84;;;4.13;75.00
45369;BME280;51342;55.250;37.668;2024-03-23T09:02:16;98181.63;;;4.12;74.98
45369;BME280;51342;55.250;37.668;2024-03-23T09:04:48;98180.03;;;4.14;75.09
45369;BME280;51342;55.250;37.668;2024-03-23T09:07:19;98176.78;;;4.16;74.93
45369;BME280;51342;55.250;37.668;2024-03-23T09:09:51;98172.53;;;4.17;74.99
45369;BME280;51342;55.250;37.668;2024-03-23T09:12:25;98174.38;;;4.19;75.06
45369;BME280;51342;55.250;37.668;2024-03-23T09:14:57;98176.94;;;4.19;74.66
45369;BME280;51342;55.250;37.668;2024-03-23T09:17:28;98168.50;;;4.20;75.09
45369;BME280;51342;55.250;37.668;2024-03-23T09:19:59;98170.34;;;4.23;75.24
45369;BME280;51342;55.250;37.668;2024-03-23T09:22:37;98157.47;;;4.21;74.92
45369;BME280;51342;55.250;37.668;2024-03-23T09:25:08;98165.28;;;4.24;75.14
45369;BME280;51342;55.250;37.668;2024-03-23T09:27:51;98162.59;;;4.21;75.08
45369;BME280;51342;55.250;37.668;2024-03-23T09:30:23;98168.13;;;4.29;74.96
45369;BME280;51342;55.250;37.668;2024-03-23T09:32:54;98147.50;;;4.26;74.91
45369;BME280;51342;55.250;37.668;2024-03-23T09:35:26;98155.84;;;4.38;75.29
45369;BME280;51342;55.250;37.668;2024-03-23T09:38:06;98148.50;;;4.44;75.02
45369;BME280;51342;55.250;37.668;2024-03-23T09:40:41;98141.44;;;4.55;74.69
45369;BME280;51342;55.250;37.668;2024-03-23T09:43:13;98140.16;;;4.63;74.81
45369;BME280;51342;55.250;37.668;2024-03-23T09:45:45;98144.81;;;4.70;74.77
45369;BME280;51342;55.250;37.668;2024-03-23T09:48:17;98144.28;;;4.76;74.53
45369;BME280;51342;55.250;37.668;2024-03-23T09:50:49;98131.66;;;4.79;74.71
45369;BME280;51342;55.250;37.668;2024-03-23T09:53:29;98141.16;;;4.82;74.51
45369;BME280;51342;55.250;37.668;2024-03-23T09:56:01;98133.72;;;4.86;74.56
45369;BME280;51342;55.250;37.668;2024-03-23T09:58:32;98135.06;;;4.94;74.24
45369;BME280;51342;55.250;37.668;2024-03-23T10:01:04;98129.38;;;5.00;74.48
45369;BME280;51342;55.250;37.668;2024-03-23T10:03:45;98123.44;;;5.01;73.97
45369;BME280;51342;55.250;37.668;2024-03-23T10:06:21;98129.13;;;5.12;73.62
45369;BME280;51342;55.250;37.668;2024-03-23T10:08:53;98123.28;;;5.14;73.71
45369;BME280;51342;55.250;37.668;2024-03-23T10:11:26;98122.66;;;5.18;73.95
45369;BME280;51342;55.250;37.668;2024-03-23T10:14:01;98126.16;;;5.20;73.51
45369;BME280;51342;55.250;37.668;2024-03-23T10:16:33;98111.75;;;5.22;73.62
45369;BME280;51342;55.250;37.668;2024-03-23T10:19:35;98118.47;;;5.20;73.41
45369;BME280;51342;55.250;37.668;2024-03-23T10:22:06;98114.88;;;5.17;73.47
45369;BME280;51342;55.250;37.668;2024-03-23T10:25:07;98119.44;;;5.06;73.56
45369;BME280;51342;55.250;37.668;2024-03-23T10:27:39;98106.88;;;5.11;73.50
45369;BME280;51342;55.250;37.668;2024-03-23T10:30:13;98105.00;;;5.08;73.58
45369;BME280;51342;55.250;37.668;2024-03-23T10:32:45;98099.97;;;5.10;73.64
45369;BME280;51342;55.250;37.668;2024-03-23T10:35:20;98100.06;;;5.11;73.39
45369;BME280;51342;55.250;37.668;2024-03-23T10:37:55;98093.97;;;5.09;73.50
45369;BME280;51342;55.250;37.668;2024-03-23T10:40:29;98089.56;;;5.07;73.72
45369;BME280;51342;55.250;37.668;2024-03-23T10:43:03;98097.06;;;5.03;73.76
45369;BME280;51342;55.250;37.668;2024-03-23T10:45:34;98072.81;;;4.97;73.58
45369;BME280;51342;55.250;37.668;2024-03-23T10:48:06;98081.44;;;4.99;73.92
45369;BME280;51342;55.250;37.668;2024-03-23T10:50:42;98082.09;;;4.95;73.92
45369;BME280;51342;55.250;37.668;2024-03-23T10:53:14;98084.69;;;4.95;73.95
45369;BME280;51342;55.250;37.668;2024-03-23T10:55:52;98081.94;;;4.92;73.62
45369;BME280;51342;55.250;37.668;2024-03-23T10:58:38;98089.38;;;4.87;73.67
45369;BME280;51342;55.250;37.668;2024-03-23T11:01:14;98092.66;;;4.85;73.34
45369;BME280;51342;55.250;37.668;2024-03-23T11:03:46;98086.41;;;4.79;73.75
45369;BME280;51342;55.250;37.668;2024-03-23T11:06:37;98090.88;;;4.67;73.83
45369;BME280;51342;55.250;37.668;2024-03-23T11:09:43;98088.13;;;4.64;74.00
45369;BME280;51342;55.250;37.668;2024-03-23T11:15:14;98084.25;;;4.40;74.67
45369;BME280;51342;55.250;37.668;2024-03-23T11:18:05;98062.34;;;4.45;74.06
45369;BME280;51342;55.250;37.668;2024-03-23T11:20:39;98057.72;;;4.54;74.30
45369;BME280;51342;55.250;37.668;2024-03-23T11:23:27;98048.19;;;4.51;74.16
45369;BME280;51342;55.250;37.668;2024-03-23T11:25:58;98042.50;;;4.57;74.00
45369;BME280;51342;55.250;37.668;2024-03-23T11:28:30;98056.19;;;4.58;73.95
45369;BME280;51342;55.250;37.668;2024-03-23T11:31:45;98055.94;;;4.53;74.20
45369;BME280;51342;55.250;37.668;2024-03-23T11:34:17;98053.47;;;4.55;74.05
45369;BME280;51342;55.250;37.668;2024-03-23T11:36:49;98054.97;;;4.51;74.40
45369;BME280;51342;55.250;37.668;2024-03-23T11:39:24;98055.06;;;4.52;74.56
45369;BME280;51342;55.250;37.668;2024-03-23T11:41:57;98061.88;;;4.52;74.43
45369;BME280;51342;55.250;37.668;2024-03-23T11:44:29;98060.91;;;4.50;74.50
45369;BME280;51342;55.250;37.668;2024-03-23T11:47:10;98059.78;;;4.45;74.55
45369;BME280;51342;55.250;37.668;2024-03-23T11:49:41;98048.72;;;4.46;74.45
45369;BME280;51342;55.250;37.668;2024-03-23T11:52:16;98044.34;;;4.43;74.69
45369;BME280;51342;55.250;37.668;2024-03-23T11:54:47;98047.91;;;4.47;74.50
45369;BME280;51342;55.250;37.668;2024-03-23T11:57:25;98045.22;;;4.44;74.52
45369;BME280;51342;55.250;37.668;2024-03-23T11:59:56;98043.47;;;4.43;74.48
45369;BME280;51342;55.250;37.668;2024-03-23T12:02:34;98038.88;;;4.37;74.83
45369;BME280;51342;55.250;37.668;2024-03-23T12:05:15;98034.47;;;4.35;74.59
45369;BME280;51342;55.250;37.668;2024-03-23T12:07:47;98041.44;;;4.37;75.10
45369;BME280;51342;55.250;37.668;2024-03-23T12:10:21;98039.59;;;4.35;74.96
45369;BME280;51342;55.250;37.668;2024-03-23T12:13:00;98036.00;;;4.31;75.21
45369;BME280;51342;55.250;37.668;2024-03-23T12:15:32;98036.94;;;4.33;75.51
45369;BME280;51342;55.250;37.668;2024-03-23T12:18:10;98030.06;;;4.32;75.31
45369;BME280;51342;55.250;37.668;2024-03-23T12:20:41;98030.94;;;4.33;75.29
45369;BME280;51342;55.250;37.668;2024-03-23T12:23:13;98034.31;;;4.32;75.18
45369;BME280;51342;55.250;37.668;2024-03-23T12:25:48;98023.88;;;4.29;75.29
45369;BME280;51342;55.250;37.668;2024-03-23T12:28:20;98034.19;;;4.30;75.38
45369;BME280;51342;55.250;37.668;2024-03-23T12:30:52;98036.75;;;4.30;75.29
45369;BME280;51342;55.250;37.668;2024-03-23T12:33:24;98038.38;;;4.28;75.69
45369;BME280;51342;55.250;37.668;2024-03-23T12:35:56;98033.25;;;4.28;75.46
45369;BME280;51342;55.250;37.668;2024-03-23T12:38:27;98043.31;;;4.25;75.89
45369;BME280;51342;55.250;37.668;2024-03-23T12:40:58;98036.44;;;4.24;75.92
45369;BME280;51342;55.250;37.668;2024-03-23T12:43:56;98044.56;;;4.17;75.91
45369;BME280;51342;55.250;37.668;2024-03-23T12:46:27;98047.22;;;4.18;76.18
45369;BME280;51342;55.250;37.668;2024-03-23T12:49:11;98043.63;;;4.15;76.17
45369;BME280;51342;55.250;37.668;2024-03-23T12:51:53;98042.81;;;4.16;76.40
45369;BME280;51342;55.250;37.668;2024-03-23T12:54:25;98043.63;;;4.15;76.60
45369;BME280;51342;55.250;37.668;2024-03-23T12:56:57;98037.50;;;4.13;76.59
45369;BME280;51342;55.250;37.668;2024-03-23T12:59:28;98040.78;;;4.10;76.97
45369;BME280;51342;55.250;37.668;2024-03-23T13:01:59;98033.13;;;4.10;77.13
45369;BME280;51342;55.250;37.668;2024-03-23T13:04:56;98037.91;;;4.04;77.22
45369;BME280;51342;55.250;37.668;2024-03-23T13:07:28;98034.53;;;4.05;77.24
45369;BME280;51342;55.250;37.668;2024-03-23T13:10:06;98029.16;;;4.01;77.18
45369;BME280;51342;55.250;37.668;2024-03-23T13:12:37;98030.13;;;4.03;77.27
45369;BME280;51342;55.250;37.668;2024-03-23T13:15:33;98034.88;;;3.96;77.19
45369;BME280;51342;55.250;37.668;2024-03-23T13:18:05;98041.88;;;3.99;77.45
45369;BME280;51342;55.250;37.668;2024-03-23T13:20:36;98035.63;;;3.94;77.31
45369;BME280;51342;55.250;37.668;2024-03-23T13:23:08;98031.22;;;3.91;77.28
45369;BME280;51342;55.250;37.668;2024-03-23T13:25:41;98036.22;;;3.90;77.73
45369;BME280;51342;55.250;37.668;2024-03-23T13:28:23;98032.66;;;3.86;77.82
45369;BME280;51342;55.250;37.668;2024-03-23T13:30:55;98029.91;;;3.83;77.86
45369;BME280;51342;55.250;37.668;2024-03-23T13:33:27;98036.88;;;3.86;78.19
45369;BME280;51342;55.250;37.668;2024-03-23T13:36:08;98020.38;;;3.81;78.13
45369;BME280;51342;55.250;37.668;2024-03-23T13:38:39;98028.06;;;3.81;78.26
45369;BME280;51342;55.250;37.668;2024-03-23T13:41:13;98024.50;;;3.79;78.47
45369;BME280;51342;55.250;37.668;2024-03-23T13:43:45;98023.72;;;3.80;78.54
45369;BME280;51342;55.250;37.668;2024-03-23T13:46:16;98021.00;;;3.77;78.90
45369;BME280;51342;55.250;37.668;2024-03-23T13:48:48;98019.25;;;3.76;78.75
45369;BME280;51342;55.250;37.668;2024-03-23T13:51:28;98016.50;;;3.72;78.75
45369;BME280;51342;55.250;37.668;2024-03-23T13:54:00;98019.25;;;3.76;78.97
45369;BME280;51342;55.250;37.668;2024-03-23T13:56:35;98025.25;;;3.76;79.07
45369;BME280;51342;55.250;37.668;2024-03-23T13:59:06;98026.13;;;3.77;78.84
45369;BME280;51342;55.250;37.668;2024-03-23T14:01:47;98020.81;;;3.73;78.82
45369;BME280;51342;55.250;37.668;2024-03-23T14:04:18;98020.81;;;3.73;79.18
45369;BME280;51342;55.250;37.668;2024-03-23T14:06:59;98016.56;;;3.74;79.16
45369;BME280;51342;55.250;37.668;2024-03-23T14:09:31;98020.03;;;3.75;79.35
45369;BME280;51342;55.250;37.668;2024-03-23T14:12:10;98019.13;;;3.74;79.33
45369;BME280;51342;55.250;37.668;2024-03-23T14:14:41;98020.56;;;3.54;79.45
45369;BME280;51342;55.250;37.668;2024-03-23T14:17:21;98010.97;;;3.65;79.44
45369;BME280;51342;55.250;37.668;2024-03-23T14:19:53;98015.53;;;3.70;79.59
45369;BME280;51342;55.250;37.668;2024-03-23T14:22:31;98007.78;;;3.69;79.42
45369;BME280;51342;55.250;37.668;2024-03-23T14:25:03;98002.75;;;3.70;79.64
45369;BME280;51342;55.250;37.668;2024-03-23T14:27:35;98016.41;;;3.71;79.93
45369;BME280;51342;55.250;37.668;2024-03-23T14:30:09;98016.34;;;3.69;79.66
45369;BME280;51342;55.250;37.668;2024-03-23T14:32:41;98011.13;;;3.68;79.78
45369;BME280;51342;55.250;37.668;2024-03-23T14:35:12;98005.75;;;3.63;79.85
45369;BME280;51342;55.250;37.668;2024-03-23T14:37:43;98005.13;;;3.67;79.73